MPTO/PTY METAR and TAF weather

Enter ICAO airport designator
Station Type Date Time Source
MPTO METAR 2021/05/14 13:00 UTC NOAA

MPTO 141300Z 00000KT 9000 SCT018 SCT090 26/25 Q1009 NOSIG


Station Type Date Time Source
MPTO Decoded METAR 2021/05/14 13:00 UTC NOAA

Tocumen, Panama (MPTO) 09-03N 079-22W
May 14, 2021 - 09:00 AM EDT / 2021.05.14 1300 UTC
Wind: Calm:0
Visibility: 5 mile(s):0
Sky conditions: partly cloudy
Temperature: 78 F (26 C)
Dew Point: 77 F (25 C)
Relative Humidity: 94%
Pressure (altimeter): 29.80 in. Hg (1009 hPa)
ob: MPTO 141300Z 00000KT 9000 SCT018 SCT090 26/25 Q1009 NOSIG
cycle: 13

Station Type Date Time Source
MPTO TAF 2021/05/14 12:59 UTC NOAA

TAF MPTO 141050Z 1412/1518 29006KT 9999 SCT018
TEMPO 1414/1417 06005KT PROB30
TEMPO 1418/1422 18006KT 6000 TSRA SCT015CB SCT080
TEMPO 1502/1506 VRB02KT
TEMPO 1508/1512 00000KT SCT016 BKN090

Example: see airport list